Chichester, New Hampshire
Current Conditions -  °F | °C
As of 12:55 AM on Friday 28 Nov 2014 (Local Time) from KLCI Reporting Station
Overcast Overcast  
Wind Chill: 27°   Ceiling: 1100
Heat Index: 27°   Visibility: 2mi
Dew Point: 25°   Wind: 0mph
Humidity: 93%   Direction: NA
Pressure: 29.97"   Gusts: NA
Location:  43.26°N, 71.4°W
Report Text: KLCI 280555Z AUTO 00000KT 2SM OVC011 M03/M04 A2997 RMK AO1 11020 21030 57007
Loading
Personal Weather Stations






























Interactive Weather Map New forecast layout! Learn more

10-Day Weather Forecast

Advertisements
Track Severe Weather on mobile